createdAt,value
2022-12-08T00:00:25.107Z,88
2022-12-08T00:30:07.688Z,89
2022-12-08T01:00:29.633Z,89
2022-12-08T01:30:14.420Z,92
2022-12-08T02:00:28.377Z,89
2022-12-08T02:30:15.204Z,87
2022-12-08T03:00:03.483Z,88
2022-12-08T03:30:29.955Z,89
2022-12-08T04:00:30.998Z,90
2022-12-08T04:30:07.692Z,90
2022-12-08T05:00:21.466Z,90
2022-12-08T05:30:11.897Z,91
2022-12-08T06:00:19.705Z,88
2022-12-08T06:30:11.882Z,88
2022-12-08T07:00:30.004Z,87
2022-12-08T07:30:02.585Z,87
2022-12-08T08:00:09.124Z,86
2022-12-08T08:30:25.436Z,85
2022-12-08T09:00:01.491Z,83
2022-12-08T09:30:26.994Z,82
2022-12-08T10:00:27.088Z,84
2022-12-08T10:30:13.286Z,85
2022-12-08T11:00:14.102Z,84
2022-12-08T11:30:07.248Z,83
2022-12-08T12:00:09.738Z,82
2022-12-08T12:30:25.797Z,81
2022-12-08T13:00:15.782Z,81
2022-12-08T13:30:24.404Z,81
2022-12-08T14:00:03.448Z,83
2022-12-08T14:30:21.324Z,80
2022-12-08T15:00:09.068Z,78
2022-12-08T15:30:14.925Z,80
2022-12-08T16:00:43.630Z,78
2022-12-08T16:30:20.473Z,80
2022-12-08T17:00:04.288Z,83
2022-12-08T17:30:04.543Z,82
2022-12-08T18:00:23.508Z,83
2022-12-08T18:30:12.578Z,84
2022-12-08T19:00:25.124Z,83
2022-12-08T19:30:10.487Z,85
2022-12-08T20:00:03.867Z,84
2022-12-08T20:30:17.341Z,83
2022-12-08T21:00:14.773Z,84
2022-12-08T21:30:05.262Z,84
2022-12-08T22:00:21.953Z,85
2022-12-08T22:30:02.249Z,85
2022-12-08T23:00:15.649Z,85
2022-12-08T23:30:30.464Z,84
